Terminal Aerodrome Forecast
Issued by NWS

Current Version | Previous Version | Text Only | Print | Product List | Glossary On
Versions: 1 2 3 4 5 6 7 8 9 10 11 12 13 14 15 16 17 18 19 20 21 22
000
FTUS41 KGYX 180916 AAA
TAFAUG
TAF AMD
KAUG 180916Z 1809/1906 33008KT 5SM -SN BR OVC007
      TEMPO 1809/1813 6SM -SN BR SCT006 OVC020
     FM181300 32006KT 3SM BR OVC015
     FM181700 30010G18KT P6SM BKN035
     FM182100 31008KT P6SM OVC050=

USA.gov is the U.S. government's official web portal to all federal, state and local government web resources and services.